Terminal Aerodrome Forecast
Issued by NWS Louisville, KY

Home | Current Version | Previous Version | Text Only | Print | Product List | Glossary On
Versions: 1 2 3 4 5 6 7 8 9 10 11 12 13
000
FTUS43 KLMK 111100
TAFSDF
TAF
KSDF 111130Z 1112/1218 01004KT P6SM SCT250
     FM111500 VRB04KT P6SM SCT050 SCT250
     FM112300 19002KT P6SM SCT200
     FM121300 22004KT P6SM BKN120=

USA.gov is the U.S. government's official web portal to all federal, state and local government web resources and services.